sensor_id;sensor_type;location;lat;lon;timestamp;P1;durP1;ratioP1;P2;durP2;ratioP2
41943;SDS011;27636;52.610;13.244;2023-03-01T00:01:21;5.88;;;3.13;;
41943;SDS011;27636;52.610;13.244;2023-03-01T00:06:26;5.30;;;2.95;;
41943;SDS011;27636;52.610;13.244;2023-03-01T00:11:32;5.53;;;3.55;;
41943;SDS011;27636;52.610;13.244;2023-03-01T00:16:37;4.00;;;2.75;;
41943;SDS011;27636;52.610;13.244;2023-03-01T00:21:44;5.57;;;3.75;;
41943;SDS011;27636;52.610;13.244;2023-03-01T00:26:50;7.47;;;3.35;;
41943;SDS011;27636;52.610;13.244;2023-03-01T00:31:55;6.50;;;2.80;;
41943;SDS011;27636;52.610;13.244;2023-03-01T00:36:59;9.50;;;3.13;;
41943;SDS011;27636;52.610;13.244;2023-03-01T00:42:09;2.80;;;2.03;;
41943;SDS011;27636;52.610;13.244;2023-03-01T00:47:13;7.05;;;2.67;;
41943;SDS011;27636;52.610;13.244;2023-03-01T00:52:17;2.47;;;1.93;;
41943;SDS011;27636;52.610;13.244;2023-03-01T00:57:22;4.85;;;3.05;;
41943;SDS011;27636;52.610;13.244;2023-03-01T01:02:25;9.95;;;3.63;;
41943;SDS011;27636;52.610;13.244;2023-03-01T01:07:29;8.05;;;3.65;;
41943;SDS011;27636;52.610;13.244;2023-03-01T01:12:34;4.55;;;2.67;;
41943;SDS011;27636;52.610;13.244;2023-03-01T01:17:39;4.00;;;2.30;;
41943;SDS011;27636;52.610;13.244;2023-03-01T01:22:43;4.70;;;3.33;;
41943;SDS011;27636;52.610;13.244;2023-03-01T01:27:48;6.43;;;3.17;;
41943;SDS011;27636;52.610;13.244;2023-03-01T01:32:52;10.13;;;3.25;;
41943;SDS011;27636;52.610;13.244;2023-03-01T01:37:56;6.85;;;4.13;;
41943;SDS011;27636;52.610;13.244;2023-03-01T01:43:02;5.05;;;2.47;;
41943;SDS011;27636;52.610;13.244;2023-03-01T01:53:14;6.82;;;3.78;;
41943;SDS011;27636;52.610;13.244;2023-03-01T01:58:22;6.00;;;3.35;;
41943;SDS011;27636;52.610;13.244;2023-03-01T02:03:29;7.68;;;3.95;;
41943;SDS011;27636;52.610;13.244;2023-03-01T02:08:37;7.47;;;3.00;;
41943;SDS011;27636;52.610;13.244;2023-03-01T02:13:46;9.05;;;4.30;;
41943;SDS011;27636;52.610;13.244;2023-03-01T02:18:52;16.35;;;5.35;;
41943;SDS011;27636;52.610;13.244;2023-03-01T02:24:00;5.88;;;3.70;;
41943;SDS011;27636;52.610;13.244;2023-03-01T02:29:15;5.20;;;3.40;;
41943;SDS011;27636;52.610;13.244;2023-03-01T02:34:19;9.27;;;4.63;;
41943;SDS011;27636;52.610;13.244;2023-03-01T02:39:30;5.95;;;3.95;;
41943;SDS011;27636;52.610;13.244;2023-03-01T02:44:39;8.10;;;3.55;;
41943;SDS011;27636;52.610;13.244;2023-03-01T02:49:43;5.93;;;2.78;;
41943;SDS011;27636;52.610;13.244;2023-03-01T02:54:47;8.60;;;4.00;;
41943;SDS011;27636;52.610;13.244;2023-03-01T02:59:56;10.48;;;2.92;;
41943;SDS011;27636;52.610;13.244;2023-03-01T03:05:07;7.00;;;3.30;;
41943;SDS011;27636;52.610;13.244;2023-03-01T03:10:16;5.95;;;2.67;;
41943;SDS011;27636;52.610;13.244;2023-03-01T03:15:26;8.57;;;2.70;;
41943;SDS011;27636;52.610;13.244;2023-03-01T03:20:32;5.68;;;4.22;;
41943;SDS011;27636;52.610;13.244;2023-03-01T03:25:36;6.53;;;4.13;;
41943;SDS011;27636;52.610;13.244;2023-03-01T03:30:42;2.75;;;2.28;;
41943;SDS011;27636;52.610;13.244;2023-03-01T03:35:48;7.25;;;3.42;;
41943;SDS011;27636;52.610;13.244;2023-03-01T03:40:58;7.78;;;3.13;;
41943;SDS011;27636;52.610;13.244;2023-03-01T03:46:08;4.50;;;4.03;;
41943;SDS011;27636;52.610;13.244;2023-03-01T03:51:12;8.75;;;3.65;;
41943;SDS011;27636;52.610;13.244;2023-03-01T03:56:17;7.40;;;3.67;;
41943;SDS011;27636;52.610;13.244;2023-03-01T04:01:22;8.10;;;3.80;;
41943;SDS011;27636;52.610;13.244;2023-03-01T04:06:27;5.63;;;2.20;;
41943;SDS011;27636;52.610;13.244;2023-03-01T04:11:33;7.18;;;3.08;;
41943;SDS011;27636;52.610;13.244;2023-03-01T04:16:40;7.18;;;3.85;;
41943;SDS011;27636;52.610;13.244;2023-03-01T04:21:44;4.80;;;2.67;;
41943;SDS011;27636;52.610;13.244;2023-03-01T04:26:48;4.30;;;2.97;;
41943;SDS011;27636;52.610;13.244;2023-03-01T04:31:52;5.72;;;3.40;;
41943;SDS011;27636;52.610;13.244;2023-03-01T04:36:56;5.25;;;2.47;;
41943;SDS011;27636;52.610;13.244;2023-03-01T04:42:02;4.43;;;2.00;;
41943;SDS011;27636;52.610;13.244;2023-03-01T04:47:07;7.73;;;2.47;;
41943;SDS011;27636;52.610;13.244;2023-03-01T04:52:10;3.83;;;2.72;;
41943;SDS011;27636;52.610;13.244;2023-03-01T04:57:15;5.97;;;3.17;;
41943;SDS011;27636;52.610;13.244;2023-03-01T05:02:20;4.20;;;1.48;;
41943;SDS011;27636;52.610;13.244;2023-03-01T05:07:24;5.10;;;3.50;;
41943;SDS011;27636;52.610;13.244;2023-03-01T05:12:29;3.40;;;2.80;;
41943;SDS011;27636;52.610;13.244;2023-03-01T05:17:35;7.07;;;3.33;;
41943;SDS011;27636;52.610;13.244;2023-03-01T05:22:39;3.65;;;2.83;;
41943;SDS011;27636;52.610;13.244;2023-03-01T05:27:43;5.60;;;3.22;;
41943;SDS011;27636;52.610;13.244;2023-03-01T05:32:49;1.77;;;1.47;;
41943;SDS011;27636;52.610;13.244;2023-03-01T05:37:58;10.23;;;3.92;;
41943;SDS011;27636;52.610;13.244;2023-03-01T05:43:02;7.13;;;3.87;;
41943;SDS011;27636;52.610;13.244;2023-03-01T05:48:09;11.65;;;5.43;;
41943;SDS011;27636;52.610;13.244;2023-03-01T05:53:16;6.70;;;5.40;;
41943;SDS011;27636;52.610;13.244;2023-03-01T05:58:22;9.85;;;4.30;;
41943;SDS011;27636;52.610;13.244;2023-03-01T06:03:28;9.00;;;4.47;;
41943;SDS011;27636;52.610;13.244;2023-03-01T06:08:32;15.88;;;6.38;;
41943;SDS011;27636;52.610;13.244;2023-03-01T06:13:35;8.55;;;5.53;;
41943;SDS011;27636;52.610;13.244;2023-03-01T06:18:40;5.43;;;3.45;;
41943;SDS011;27636;52.610;13.244;2023-03-01T06:23:44;13.57;;;5.50;;
41943;SDS011;27636;52.610;13.244;2023-03-01T06:28:47;7.18;;;4.45;;
41943;SDS011;27636;52.610;13.244;2023-03-01T06:33:52;8.27;;;4.88;;
41943;SDS011;27636;52.610;13.244;2023-03-01T06:43:59;7.95;;;3.83;;
41943;SDS011;27636;52.610;13.244;2023-03-01T06:49:04;15.87;;;7.03;;
41943;SDS011;27636;52.610;13.244;2023-03-01T06:54:12;16.40;;;7.03;;
41943;SDS011;27636;52.610;13.244;2023-03-01T06:59:16;8.50;;;5.60;;
41943;SDS011;27636;52.610;13.244;2023-03-01T07:04:21;8.23;;;4.72;;
41943;SDS011;27636;52.610;13.244;2023-03-01T07:14:28;9.45;;;4.20;;
41943;SDS011;27636;52.610;13.244;2023-03-01T07:19:33;10.93;;;4.72;;
41943;SDS011;27636;52.610;13.244;2023-03-01T07:24:37;19.10;;;9.30;;
41943;SDS011;27636;52.610;13.244;2023-03-01T07:29:41;15.45;;;6.85;;
41943;SDS011;27636;52.610;13.244;2023-03-01T07:34:46;14.80;;;7.70;;
41943;SDS011;27636;52.610;13.244;2023-03-01T07:39:51;20.95;;;9.18;;
41943;SDS011;27636;52.610;13.244;2023-03-01T07:44:54;18.98;;;8.48;;
41943;SDS011;27636;52.610;13.244;2023-03-01T07:49:59;27.67;;;10.68;;
41943;SDS011;27636;52.610;13.244;2023-03-01T07:55:04;24.83;;;11.63;;
41943;SDS011;27636;52.610;13.244;2023-03-01T08:00:10;37.40;;;11.83;;
41943;SDS011;27636;52.610;13.244;2023-03-01T08:05:17;21.42;;;10.75;;
41943;SDS011;27636;52.610;13.244;2023-03-01T08:10:20;26.92;;;10.55;;
41943;SDS011;27636;52.610;13.244;2023-03-01T08:15:24;20.13;;;9.20;;
41943;SDS011;27636;52.610;13.244;2023-03-01T08:20:29;13.02;;;8.10;;
41943;SDS011;27636;52.610;13.244;2023-03-01T08:25:32;14.55;;;8.50;;
41943;SDS011;27636;52.610;13.244;2023-03-01T08:30:36;12.82;;;6.50;;
41943;SDS011;27636;52.610;13.244;2023-03-01T08:35:41;14.95;;;7.90;;
41943;SDS011;27636;52.610;13.244;2023-03-01T08:40:44;14.57;;;5.97;;
41943;SDS011;27636;52.610;13.244;2023-03-01T08:45:48;17.23;;;6.18;;
41943;SDS011;27636;52.610;13.244;2023-03-01T08:50:53;13.45;;;5.47;;
41943;SDS011;27636;52.610;13.244;2023-03-01T08:55:59;10.60;;;4.93;;
41943;SDS011;27636;52.610;13.244;2023-03-01T09:01:06;10.63;;;5.57;;
41943;SDS011;27636;52.610;13.244;2023-03-01T09:06:12;10.27;;;4.50;;
41943;SDS011;27636;52.610;13.244;2023-03-01T09:11:18;10.70;;;4.65;;
41943;SDS011;27636;52.610;13.244;2023-03-01T09:16:22;8.35;;;3.90;;
41943;SDS011;27636;52.610;13.244;2023-03-01T09:21:28;10.90;;;5.07;;
41943;SDS011;27636;52.610;13.244;2023-03-01T09:26:42;10.60;;;4.30;;
41943;SDS011;27636;52.610;13.244;2023-03-01T09:31:50;10.55;;;4.72;;
41943;SDS011;27636;52.610;13.244;2023-03-01T09:36:59;10.45;;;4.38;;
41943;SDS011;27636;52.610;13.244;2023-03-01T09:42:10;9.77;;;4.05;;
41943;SDS011;27636;52.610;13.244;2023-03-01T09:47:17;9.02;;;3.75;;
41943;SDS011;27636;52.610;13.244;2023-03-01T09:52:25;10.30;;;4.13;;
41943;SDS011;27636;52.610;13.244;2023-03-01T09:57:36;13.98;;;4.07;;
41943;SDS011;27636;52.610;13.244;2023-03-01T10:02:47;6.13;;;2.33;;
41943;SDS011;27636;52.610;13.244;2023-03-01T10:08:00;6.75;;;2.88;;
41943;SDS011;27636;52.610;13.244;2023-03-01T10:13:19;8.23;;;2.60;;
41943;SDS011;27636;52.610;13.244;2023-03-01T10:18:26;7.40;;;3.10;;
41943;SDS011;27636;52.610;13.244;2023-03-01T10:23:34;7.28;;;2.78;;
41943;SDS011;27636;52.610;13.244;2023-03-01T10:28:41;6.32;;;2.67;;
41943;SDS011;27636;52.610;13.244;2023-03-01T10:33:53;9.07;;;3.37;;
41943;SDS011;27636;52.610;13.244;2023-03-01T10:39:00;6.88;;;2.38;;
41943;SDS011;27636;52.610;13.244;2023-03-01T10:44:22;7.15;;;2.08;;
41943;SDS011;27636;52.610;13.244;2023-03-01T10:49:52;8.43;;;1.95;;
41943;SDS011;27636;52.610;13.244;2023-03-01T10:55:03;6.78;;;2.10;;
41943;SDS011;27636;52.610;13.244;2023-03-01T11:00:26;6.90;;;2.42;;
41943;SDS011;27636;52.610;13.244;2023-03-01T11:05:31;6.65;;;2.35;;
41943;SDS011;27636;52.610;13.244;2023-03-01T11:10:37;3.70;;;1.42;;
41943;SDS011;27636;52.610;13.244;2023-03-01T11:15:41;7.70;;;2.47;;
41943;SDS011;27636;52.610;13.244;2023-03-01T11:25:53;4.53;;;1.67;;
41943;SDS011;27636;52.610;13.244;2023-03-01T11:31:00;5.40;;;2.03;;
41943;SDS011;27636;52.610;13.244;2023-03-01T11:36:13;6.70;;;2.38;;
41943;SDS011;27636;52.610;13.244;2023-03-01T11:41:25;5.60;;;2.08;;
41943;SDS011;27636;52.610;13.244;2023-03-01T11:46:45;9.30;;;2.47;;
41943;SDS011;27636;52.610;13.244;2023-03-01T11:51:59;7.85;;;2.55;;
41943;SDS011;27636;52.610;13.244;2023-03-01T11:57:11;4.47;;;1.60;;
41943;SDS011;27636;52.610;13.244;2023-03-01T12:07:42;2.15;;;0.98;;
41943;SDS011;27636;52.610;13.244;2023-03-01T12:12:58;3.03;;;1.27;;
41943;SDS011;27636;52.610;13.244;2023-03-01T12:18:18;3.22;;;1.30;;
41943;SDS011;27636;52.610;13.244;2023-03-01T12:29:12;5.40;;;2.10;;
41943;SDS011;27636;52.610;13.244;2023-03-01T12:34:31;5.25;;;1.85;;
41943;SDS011;27636;52.610;13.244;2023-03-01T12:39:47;8.63;;;1.98;;
41943;SDS011;27636;52.610;13.244;2023-03-01T12:45:04;6.93;;;2.28;;
41943;SDS011;27636;52.610;13.244;2023-03-01T12:50:28;10.25;;;1.55;;
41943;SDS011;27636;52.610;13.244;2023-03-01T12:55:40;4.00;;;1.80;;
41943;SDS011;27636;52.610;13.244;2023-03-01T13:00:49;3.88;;;1.40;;
41943;SDS011;27636;52.610;13.244;2023-03-01T13:06:06;5.68;;;1.73;;
41943;SDS011;27636;52.610;13.244;2023-03-01T13:11:15;5.30;;;2.08;;
41943;SDS011;27636;52.610;13.244;2023-03-01T13:16:38;4.63;;;1.70;;
41943;SDS011;27636;52.610;13.244;2023-03-01T13:21:43;4.88;;;2.05;;
41943;SDS011;27636;52.610;13.244;2023-03-01T13:32:29;3.95;;;1.70;;
41943;SDS011;27636;52.610;13.244;2023-03-01T13:37:49;5.25;;;1.90;;
41943;SDS011;27636;52.610;13.244;2023-03-01T13:42:53;5.25;;;1.75;;
41943;SDS011;27636;52.610;13.244;2023-03-01T13:53:19;7.03;;;1.67;;
41943;SDS011;27636;52.610;13.244;2023-03-01T13:58:25;4.70;;;1.92;;
41943;SDS011;27636;52.610;13.244;2023-03-01T14:03:32;8.05;;;2.10;;
41943;SDS011;27636;52.610;13.244;2023-03-01T14:08:44;5.45;;;1.83;;
41943;SDS011;27636;52.610;13.244;2023-03-01T14:13:51;5.45;;;1.73;;
41943;SDS011;27636;52.610;13.244;2023-03-01T14:19:12;4.35;;;1.65;;
41943;SDS011;27636;52.610;13.244;2023-03-01T14:24:37;8.85;;;2.05;;
41943;SDS011;27636;52.610;13.244;2023-03-01T14:29:43;9.23;;;1.58;;
41943;SDS011;27636;52.610;13.244;2023-03-01T14:34:59;6.28;;;1.70;;
41943;SDS011;27636;52.610;13.244;2023-03-01T14:40:04;4.90;;;1.92;;
41943;SDS011;27636;52.610;13.244;2023-03-01T14:45:22;4.65;;;1.30;;
41943;SDS011;27636;52.610;13.244;2023-03-01T14:50:30;4.47;;;1.25;;
41943;SDS011;27636;52.610;13.244;2023-03-01T14:55:35;4.78;;;1.52;;
41943;SDS011;27636;52.610;13.244;2023-03-01T15:00:42;4.82;;;1.33;;
41943;SDS011;27636;52.610;13.244;2023-03-01T15:05:52;3.40;;;1.13;;
41943;SDS011;27636;52.610;13.244;2023-03-01T15:10:58;3.58;;;1.33;;
41943;SDS011;27636;52.610;13.244;2023-03-01T15:16:06;4.88;;;1.20;;
41943;SDS011;27636;52.610;13.244;2023-03-01T15:21:17;4.95;;;1.30;;
41943;SDS011;27636;52.610;13.244;2023-03-01T15:26:28;4.47;;;0.95;;
41943;SDS011;27636;52.610;13.244;2023-03-01T15:31:34;2.67;;;0.85;;
41943;SDS011;27636;52.610;13.244;2023-03-01T15:36:44;6.03;;;1.80;;
41943;SDS011;27636;52.610;13.244;2023-03-01T15:41:52;4.25;;;1.45;;
41943;SDS011;27636;52.610;13.244;2023-03-01T15:46:56;6.25;;;1.55;;
41943;SDS011;27636;52.610;13.244;2023-03-01T15:52:02;2.83;;;1.43;;
41943;SDS011;27636;52.610;13.244;2023-03-01T15:57:08;3.63;;;1.15;;
41943;SDS011;27636;52.610;13.244;2023-03-01T16:02:17;2.78;;;1.17;;
41943;SDS011;27636;52.610;13.244;2023-03-01T16:07:25;3.97;;;1.25;;
41943;SDS011;27636;52.610;13.244;2023-03-01T16:12:30;7.15;;;1.58;;
41943;SDS011;27636;52.610;13.244;2023-03-01T16:17:34;3.75;;;1.50;;
41943;SDS011;27636;52.610;13.244;2023-03-01T16:22:39;6.13;;;1.40;;
41943;SDS011;27636;52.610;13.244;2023-03-01T16:27:43;7.40;;;2.25;;
41943;SDS011;27636;52.610;13.244;2023-03-01T16:32:48;4.53;;;2.20;;
41943;SDS011;27636;52.610;13.244;2023-03-01T16:37:54;5.20;;;2.40;;
41943;SDS011;27636;52.610;13.244;2023-03-01T16:42:58;8.43;;;1.52;;
41943;SDS011;27636;52.610;13.244;2023-03-01T16:48:04;4.85;;;1.58;;
41943;SDS011;27636;52.610;13.244;2023-03-01T16:53:09;3.50;;;1.25;;
41943;SDS011;27636;52.610;13.244;2023-03-01T16:58:13;4.15;;;1.58;;
41943;SDS011;27636;52.610;13.244;2023-03-01T17:03:20;5.78;;;1.70;;
41943;SDS011;27636;52.610;13.244;2023-03-01T17:08:25;5.07;;;1.88;;
41943;SDS011;27636;52.610;13.244;2023-03-01T17:13:29;8.98;;;1.85;;
41943;SDS011;27636;52.610;13.244;2023-03-01T17:18:32;6.32;;;1.60;;
41943;SDS011;27636;52.610;13.244;2023-03-01T17:23:38;8.23;;;1.77;;
41943;SDS011;27636;52.610;13.244;2023-03-01T17:28:44;4.57;;;1.75;;
41943;SDS011;27636;52.610;13.244;2023-03-01T17:33:53;2.95;;;1.45;;
41943;SDS011;27636;52.610;13.244;2023-03-01T17:39:02;3.13;;;1.50;;
41943;SDS011;27636;52.610;13.244;2023-03-01T17:44:06;2.55;;;1.20;;
41943;SDS011;27636;52.610;13.244;2023-03-01T17:49:09;4.90;;;1.85;;
41943;SDS011;27636;52.610;13.244;2023-03-01T17:54:15;3.38;;;1.45;;
41943;SDS011;27636;52.610;13.244;2023-03-01T17:59:19;2.55;;;1.48;;
41943;SDS011;27636;52.610;13.244;2023-03-01T18:04:23;2.55;;;0.82;;
41943;SDS011;27636;52.610;13.244;2023-03-01T18:09:28;6.85;;;1.80;;
41943;SDS011;27636;52.610;13.244;2023-03-01T18:14:32;4.88;;;1.75;;
41943;SDS011;27636;52.610;13.244;2023-03-01T18:19:36;4.20;;;1.80;;
41943;SDS011;27636;52.610;13.244;2023-03-01T18:24:45;4.20;;;2.10;;
41943;SDS011;27636;52.610;13.244;2023-03-01T18:29:48;5.05;;;1.77;;
41943;SDS011;27636;52.610;13.244;2023-03-01T18:34:52;12.18;;;1.80;;
41943;SDS011;27636;52.610;13.244;2023-03-01T18:39:57;3.33;;;1.27;;
41943;SDS011;27636;52.610;13.244;2023-03-01T18:45:00;2.42;;;1.33;;
41943;SDS011;27636;52.610;13.244;2023-03-01T18:50:05;5.00;;;1.93;;
41943;SDS011;27636;52.610;13.244;2023-03-01T19:00:14;4.25;;;1.98;;
41943;SDS011;27636;52.610;13.244;2023-03-01T19:05:21;4.03;;;1.40;;
41943;SDS011;27636;52.610;13.244;2023-03-01T19:10:26;3.95;;;1.65;;
41943;SDS011;27636;52.610;13.244;2023-03-01T19:15:30;9.57;;;2.58;;
41943;SDS011;27636;52.610;13.244;2023-03-01T19:20:34;10.13;;;3.90;;
41943;SDS011;27636;52.610;13.244;2023-03-01T19:25:39;10.63;;;2.40;;
41943;SDS011;27636;52.610;13.244;2023-03-01T19:30:43;4.85;;;2.47;;
41943;SDS011;27636;52.610;13.244;2023-03-01T19:35:47;4.78;;;2.13;;
41943;SDS011;27636;52.610;13.244;2023-03-01T19:40:52;2.42;;;1.88;;
41943;SDS011;27636;52.610;13.244;2023-03-01T19:45:57;9.38;;;1.77;;
41943;SDS011;27636;52.610;13.244;2023-03-01T19:51:01;5.22;;;2.75;;
41943;SDS011;27636;52.610;13.244;2023-03-01T19:56:07;3.93;;;2.40;;
41943;SDS011;27636;52.610;13.244;2023-03-01T20:01:14;4.78;;;2.92;;
41943;SDS011;27636;52.610;13.244;2023-03-01T20:06:19;5.30;;;2.97;;
41943;SDS011;27636;52.610;13.244;2023-03-01T20:16:29;5.72;;;3.30;;
41943;SDS011;27636;52.610;13.244;2023-03-01T20:21:34;8.82;;;3.85;;
41943;SDS011;27636;52.610;13.244;2023-03-01T20:26:39;5.47;;;2.90;;
41943;SDS011;27636;52.610;13.244;2023-03-01T20:31:43;7.15;;;3.22;;
41943;SDS011;27636;52.610;13.244;2023-03-01T20:36:48;6.90;;;4.20;;
41943;SDS011;27636;52.610;13.244;2023-03-01T20:41:54;8.60;;;3.55;;
41943;SDS011;27636;52.610;13.244;2023-03-01T20:46:58;7.25;;;3.17;;
41943;SDS011;27636;52.610;13.244;2023-03-01T20:52:03;11.13;;;4.18;;
41943;SDS011;27636;52.610;13.244;2023-03-01T20:57:10;9.95;;;4.90;;
41943;SDS011;27636;52.610;13.244;2023-03-01T21:02:15;7.72;;;4.32;;
41943;SDS011;27636;52.610;13.244;2023-03-01T21:07:19;12.10;;;5.03;;
41943;SDS011;27636;52.610;13.244;2023-03-01T21:12:25;6.80;;;4.00;;
41943;SDS011;27636;52.610;13.244;2023-03-01T21:22:32;9.27;;;3.28;;
41943;SDS011;27636;52.610;13.244;2023-03-01T21:27:38;8.30;;;4.32;;
41943;SDS011;27636;52.610;13.244;2023-03-01T21:32:42;6.57;;;3.38;;
41943;SDS011;27636;52.610;13.244;2023-03-01T21:37:46;8.80;;;3.72;;
41943;SDS011;27636;52.610;13.244;2023-03-01T21:42:51;5.20;;;2.45;;
41943;SDS011;27636;52.610;13.244;2023-03-01T21:47:54;3.65;;;2.03;;
41943;SDS011;27636;52.610;13.244;2023-03-01T21:52:58;5.40;;;1.83;;
41943;SDS011;27636;52.610;13.244;2023-03-01T21:58:08;4.88;;;2.13;;
41943;SDS011;27636;52.610;13.244;2023-03-01T22:03:11;5.88;;;2.17;;
41943;SDS011;27636;52.610;13.244;2023-03-01T22:08:14;5.07;;;2.80;;
41943;SDS011;27636;52.610;13.244;2023-03-01T22:13:20;5.72;;;2.90;;
41943;SDS011;27636;52.610;13.244;2023-03-01T22:18:23;5.45;;;2.58;;
41943;SDS011;27636;52.610;13.244;2023-03-01T22:23:27;6.57;;;3.05;;
41943;SDS011;27636;52.610;13.244;2023-03-01T22:28:31;8.80;;;4.32;;
41943;SDS011;27636;52.610;13.244;2023-03-01T22:33:35;12.23;;;3.00;;
41943;SDS011;27636;52.610;13.244;2023-03-01T22:38:38;7.18;;;3.17;;
41943;SDS011;27636;52.610;13.244;2023-03-01T22:43:45;8.00;;;4.07;;
41943;SDS011;27636;52.610;13.244;2023-03-01T22:53:52;6.60;;;2.35;;
41943;SDS011;27636;52.610;13.244;2023-03-01T22:58:57;4.90;;;3.25;;
41943;SDS011;27636;52.610;13.244;2023-03-01T23:04:01;6.18;;;3.28;;
41943;SDS011;27636;52.610;13.244;2023-03-01T23:09:05;6.32;;;2.75;;
41943;SDS011;27636;52.610;13.244;2023-03-01T23:14:09;6.40;;;3.03;;
41943;SDS011;27636;52.610;13.244;2023-03-01T23:19:13;4.38;;;2.58;;
41943;SDS011;27636;52.610;13.244;2023-03-01T23:24:19;5.82;;;2.95;;
41943;SDS011;27636;52.610;13.244;2023-03-01T23:29:25;8.40;;;2.95;;
41943;SDS011;27636;52.610;13.244;2023-03-01T23:34:29;7.10;;;4.15;;
41943;SDS011;27636;52.610;13.244;2023-03-01T23:39:32;8.00;;;4.90;;
41943;SDS011;27636;52.610;13.244;2023-03-01T23:44:36;7.70;;;4.85;;
41943;SDS011;27636;52.610;13.244;2023-03-01T23:49:42;9.85;;;3.78;;
41943;SDS011;27636;52.610;13.244;2023-03-01T23:54:45;8.15;;;4.00;;
41943;SDS011;27636;52.610;13.244;2023-03-01T23:59:50;10.73;;;5.63;;
